sensor_id;sensor_type;location;lat;lon;timestamp;temperature;humidity
27026;DHT22;14565;48.626;8.978;2024-01-16T00:01:05;-2.60;99.90
27026;DHT22;14565;48.626;8.978;2024-01-16T00:03:31;-2.60;99.90
27026;DHT22;14565;48.626;8.978;2024-01-16T00:05:57;-2.50;99.90
27026;DHT22;14565;48.626;8.978;2024-01-16T00:08:23;-2.50;99.90
27026;DHT22;14565;48.626;8.978;2024-01-16T00:10:50;-2.60;99.90
27026;DHT22;14565;48.626;8.978;2024-01-16T00:13:16;-2.60;99.90
27026;DHT22;14565;48.626;8.978;2024-01-16T00:15:43;-2.50;99.90
27026;DHT22;14565;48.626;8.978;2024-01-16T00:18:08;-2.50;99.90
27026;DHT22;14565;48.626;8.978;2024-01-16T00:20:34;-2.50;99.90
27026;DHT22;14565;48.626;8.978;2024-01-16T00:23:00;-2.40;99.90
27026;DHT22;14565;48.626;8.978;2024-01-16T00:25:26;-2.40;99.90
27026;DHT22;14565;48.626;8.978;2024-01-16T00:27:51;-2.30;99.90
27026;DHT22;14565;48.626;8.978;2024-01-16T00:30:18;-2.30;99.90
27026;DHT22;14565;48.626;8.978;2024-01-16T00:32:44;-2.30;99.90
27026;DHT22;14565;48.626;8.978;2024-01-16T00:35:10;-2.20;99.90
27026;DHT22;14565;48.626;8.978;2024-01-16T00:37:38;-2.20;99.90
27026;DHT22;14565;48.626;8.978;2024-01-16T00:40:05;-2.20;99.90
27026;DHT22;14565;48.626;8.978;2024-01-16T00:42:34;-2.20;99.90
27026;DHT22;14565;48.626;8.978;2024-01-16T00:44:59;-2.20;99.90
27026;DHT22;14565;48.626;8.978;2024-01-16T00:47:25;-2.20;99.90
27026;DHT22;14565;48.626;8.978;2024-01-16T00:49:51;-2.20;99.90
27026;DHT22;14565;48.626;8.978;2024-01-16T00:52:17;-2.20;99.90
27026;DHT22;14565;48.626;8.978;2024-01-16T00:54:43;-2.20;99.90
27026;DHT22;14565;48.626;8.978;2024-01-16T00:57:09;-2.20;99.90
27026;DHT22;14565;48.626;8.978;2024-01-16T00:59:34;-2.20;99.90
27026;DHT22;14565;48.626;8.978;2024-01-16T01:02:00;-2.20;99.90
27026;DHT22;14565;48.626;8.978;2024-01-16T01:04:26;-2.20;99.90
27026;DHT22;14565;48.626;8.978;2024-01-16T01:06:51;-2.20;99.90
27026;DHT22;14565;48.626;8.978;2024-01-16T01:09:17;-2.20;99.90
27026;DHT22;14565;48.626;8.978;2024-01-16T01:11:43;-2.10;99.90
27026;DHT22;14565;48.626;8.978;2024-01-16T01:14:08;-2.20;99.90
27026;DHT22;14565;48.626;8.978;2024-01-16T01:16:34;-2.20;99.90
27026;DHT22;14565;48.626;8.978;2024-01-16T01:19:00;-2.20;99.90
27026;DHT22;14565;48.626;8.978;2024-01-16T01:21:26;-2.10;99.90
27026;DHT22;14565;48.626;8.978;2024-01-16T01:23:52;-2.10;99.90
27026;DHT22;14565;48.626;8.978;2024-01-16T01:26:18;-2.10;99.90
27026;DHT22;14565;48.626;8.978;2024-01-16T01:28:44;-2.20;99.90
27026;DHT22;14565;48.626;8.978;2024-01-16T01:31:13;-2.10;99.90
27026;DHT22;14565;48.626;8.978;2024-01-16T01:33:42;-2.10;99.90
27026;DHT22;14565;48.626;8.978;2024-01-16T01:36:08;-2.20;99.90
27026;DHT22;14565;48.626;8.978;2024-01-16T01:38:33;-2.30;99.90
27026;DHT22;14565;48.626;8.978;2024-01-16T01:40:59;-2.30;99.90
27026;DHT22;14565;48.626;8.978;2024-01-16T01:43:25;-2.30;99.90
27026;DHT22;14565;48.626;8.978;2024-01-16T01:46:10;-2.30;99.90
27026;DHT22;14565;48.626;8.978;2024-01-16T01:48:44;-2.30;99.90
27026;DHT22;14565;48.626;8.978;2024-01-16T01:51:12;-2.30;99.90
27026;DHT22;14565;48.626;8.978;2024-01-16T01:53:38;-2.40;99.90
27026;DHT22;14565;48.626;8.978;2024-01-16T01:56:11;-2.40;99.90
27026;DHT22;14565;48.626;8.978;2024-01-16T01:58:39;-2.40;99.90
27026;DHT22;14565;48.626;8.978;2024-01-16T02:01:07;-2.50;99.90
27026;DHT22;14565;48.626;8.978;2024-01-16T02:03:36;-2.60;99.90
27026;DHT22;14565;48.626;8.978;2024-01-16T02:06:05;-2.60;99.90
27026;DHT22;14565;48.626;8.978;2024-01-16T02:08:31;-2.70;99.90
27026;DHT22;14565;48.626;8.978;2024-01-16T02:10:57;-2.70;99.90
27026;DHT22;14565;48.626;8.978;2024-01-16T02:13:23;-2.70;99.90
27026;DHT22;14565;48.626;8.978;2024-01-16T02:15:50;-2.80;99.90
27026;DHT22;14565;48.626;8.978;2024-01-16T02:18:16;-2.90;99.90
27026;DHT22;14565;48.626;8.978;2024-01-16T02:20:42;-2.90;99.90
27026;DHT22;14565;48.626;8.978;2024-01-16T02:23:10;-3.00;99.90
27026;DHT22;14565;48.626;8.978;2024-01-16T02:25:38;-3.00;99.90
27026;DHT22;14565;48.626;8.978;2024-01-16T02:28:04;-3.00;99.90
27026;DHT22;14565;48.626;8.978;2024-01-16T02:30:29;-3.00;99.90
27026;DHT22;14565;48.626;8.978;2024-01-16T02:32:56;-3.00;99.90
27026;DHT22;14565;48.626;8.978;2024-01-16T02:35:21;-2.90;99.90
27026;DHT22;14565;48.626;8.978;2024-01-16T02:37:47;-3.00;99.90
27026;DHT22;14565;48.626;8.978;2024-01-16T02:40:13;-3.00;99.90
27026;DHT22;14565;48.626;8.978;2024-01-16T02:42:38;-2.90;99.90
27026;DHT22;14565;48.626;8.978;2024-01-16T02:45:05;-3.00;99.90
27026;DHT22;14565;48.626;8.978;2024-01-16T02:47:31;-3.00;99.90
27026;DHT22;14565;48.626;8.978;2024-01-16T02:49:56;-3.00;99.90
27026;DHT22;14565;48.626;8.978;2024-01-16T02:52:22;-3.10;99.90
27026;DHT22;14565;48.626;8.978;2024-01-16T02:54:48;-3.10;99.90
27026;DHT22;14565;48.626;8.978;2024-01-16T02:57:14;-3.10;99.90
27026;DHT22;14565;48.626;8.978;2024-01-16T02:59:46;-3.20;99.90
27026;DHT22;14565;48.626;8.978;2024-01-16T03:02:11;-3.20;99.90
27026;DHT22;14565;48.626;8.978;2024-01-16T03:04:37;-3.20;99.90
27026;DHT22;14565;48.626;8.978;2024-01-16T03:07:03;-3.30;99.90
27026;DHT22;14565;48.626;8.978;2024-01-16T03:09:29;-3.30;99.90
27026;DHT22;14565;48.626;8.978;2024-01-16T03:11:55;-3.30;99.90
27026;DHT22;14565;48.626;8.978;2024-01-16T03:14:21;-3.30;99.90
27026;DHT22;14565;48.626;8.978;2024-01-16T03:16:47;-3.20;99.90
27026;DHT22;14565;48.626;8.978;2024-01-16T03:19:12;-3.20;99.90
27026;DHT22;14565;48.626;8.978;2024-01-16T03:21:38;-3.20;99.90
27026;DHT22;14565;48.626;8.978;2024-01-16T03:24:04;-3.20;99.90
27026;DHT22;14565;48.626;8.978;2024-01-16T03:26:31;-3.30;99.90
27026;DHT22;14565;48.626;8.978;2024-01-16T03:28:57;-3.30;99.90
27026;DHT22;14565;48.626;8.978;2024-01-16T03:31:23;-3.30;99.90
27026;DHT22;14565;48.626;8.978;2024-01-16T03:33:49;-3.20;99.90
27026;DHT22;14565;48.626;8.978;2024-01-16T03:36:14;-3.40;99.90
27026;DHT22;14565;48.626;8.978;2024-01-16T03:38:42;-3.40;99.90
27026;DHT22;14565;48.626;8.978;2024-01-16T03:41:08;-3.50;99.90
27026;DHT22;14565;48.626;8.978;2024-01-16T03:43:35;-3.50;99.90
27026;DHT22;14565;48.626;8.978;2024-01-16T03:46:01;-3.60;99.90
27026;DHT22;14565;48.626;8.978;2024-01-16T03:48:27;-3.70;99.90
27026;DHT22;14565;48.626;8.978;2024-01-16T03:50:53;-3.70;99.90
27026;DHT22;14565;48.626;8.978;2024-01-16T03:53:20;-3.80;99.90
27026;DHT22;14565;48.626;8.978;2024-01-16T03:55:47;-3.90;99.90
27026;DHT22;14565;48.626;8.978;2024-01-16T03:58:13;-3.90;99.90
27026;DHT22;14565;48.626;8.978;2024-01-16T04:00:38;-4.00;99.90
27026;DHT22;14565;48.626;8.978;2024-01-16T04:03:04;-4.00;99.90
27026;DHT22;14565;48.626;8.978;2024-01-16T04:05:30;-4.10;99.90
27026;DHT22;14565;48.626;8.978;2024-01-16T04:07:57;-4.00;99.90
27026;DHT22;14565;48.626;8.978;2024-01-16T04:10:22;-4.20;99.90
27026;DHT22;14565;48.626;8.978;2024-01-16T04:12:48;-4.30;99.90
27026;DHT22;14565;48.626;8.978;2024-01-16T04:15:14;-4.30;99.90
27026;DHT22;14565;48.626;8.978;2024-01-16T04:17:40;-4.30;99.90
27026;DHT22;14565;48.626;8.978;2024-01-16T04:20:06;-4.40;99.90
27026;DHT22;14565;48.626;8.978;2024-01-16T04:22:34;-4.50;99.90
27026;DHT22;14565;48.626;8.978;2024-01-16T04:25:00;-4.60;99.90
27026;DHT22;14565;48.626;8.978;2024-01-16T04:27:26;-4.60;99.90
27026;DHT22;14565;48.626;8.978;2024-01-16T04:29:52;-4.60;99.90
27026;DHT22;14565;48.626;8.978;2024-01-16T04:32:18;-4.70;99.90
27026;DHT22;14565;48.626;8.978;2024-01-16T04:34:44;-4.70;99.90
27026;DHT22;14565;48.626;8.978;2024-01-16T04:37:10;-4.70;99.90
27026;DHT22;14565;48.626;8.978;2024-01-16T04:39:35;-4.70;99.90
27026;DHT22;14565;48.626;8.978;2024-01-16T04:42:01;-4.70;99.90
27026;DHT22;14565;48.626;8.978;2024-01-16T04:44:27;-4.70;99.90
27026;DHT22;14565;48.626;8.978;2024-01-16T04:46:52;-4.70;99.90
27026;DHT22;14565;48.626;8.978;2024-01-16T04:49:18;-4.70;99.90
27026;DHT22;14565;48.626;8.978;2024-01-16T04:51:44;-4.70;99.90
27026;DHT22;14565;48.626;8.978;2024-01-16T04:54:11;-4.80;99.90
27026;DHT22;14565;48.626;8.978;2024-01-16T04:56:37;-4.80;99.90
27026;DHT22;14565;48.626;8.978;2024-01-16T04:59:03;-5.00;99.90
27026;DHT22;14565;48.626;8.978;2024-01-16T05:01:28;-5.00;99.90
27026;DHT22;14565;48.626;8.978;2024-01-16T05:03:54;-5.00;99.90
27026;DHT22;14565;48.626;8.978;2024-01-16T05:06:20;-5.10;99.90
27026;DHT22;14565;48.626;8.978;2024-01-16T05:08:46;-5.10;99.90
27026;DHT22;14565;48.626;8.978;2024-01-16T05:11:12;-5.00;99.90
27026;DHT22;14565;48.626;8.978;2024-01-16T05:13:38;-5.10;99.90
27026;DHT22;14565;48.626;8.978;2024-01-16T05:16:04;-5.00;99.90
27026;DHT22;14565;48.626;8.978;2024-01-16T05:18:30;-5.00;99.90
27026;DHT22;14565;48.626;8.978;2024-01-16T05:20:56;-4.90;99.90
27026;DHT22;14565;48.626;8.978;2024-01-16T05:23:22;-5.00;99.90
27026;DHT22;14565;48.626;8.978;2024-01-16T05:25:47;-5.00;99.90
27026;DHT22;14565;48.626;8.978;2024-01-16T05:28:13;-5.00;99.90
27026;DHT22;14565;48.626;8.978;2024-01-16T05:30:39;-5.10;99.90
27026;DHT22;14565;48.626;8.978;2024-01-16T05:33:04;-5.00;99.90
27026;DHT22;14565;48.626;8.978;2024-01-16T05:35:30;-5.00;99.90
27026;DHT22;14565;48.626;8.978;2024-01-16T05:37:56;-5.10;99.90
27026;DHT22;14565;48.626;8.978;2024-01-16T05:40:22;-5.10;99.90
27026;DHT22;14565;48.626;8.978;2024-01-16T05:42:50;-5.10;99.90
27026;DHT22;14565;48.626;8.978;2024-01-16T05:45:17;-5.10;99.90
27026;DHT22;14565;48.626;8.978;2024-01-16T05:47:42;-5.00;99.90
27026;DHT22;14565;48.626;8.978;2024-01-16T05:50:08;-5.10;99.90
27026;DHT22;14565;48.626;8.978;2024-01-16T05:52:34;-5.10;99.90
27026;DHT22;14565;48.626;8.978;2024-01-16T05:55:00;-5.10;99.90
27026;DHT22;14565;48.626;8.978;2024-01-16T05:57:26;-5.00;99.90
27026;DHT22;14565;48.626;8.978;2024-01-16T05:59:51;-5.00;99.90
27026;DHT22;14565;48.626;8.978;2024-01-16T06:02:17;-5.00;99.90
27026;DHT22;14565;48.626;8.978;2024-01-16T06:04:43;-5.00;99.90
27026;DHT22;14565;48.626;8.978;2024-01-16T06:07:09;-5.00;99.90
27026;DHT22;14565;48.626;8.978;2024-01-16T06:09:41;-5.10;99.90
27026;DHT22;14565;48.626;8.978;2024-01-16T06:12:07;-5.00;99.90
27026;DHT22;14565;48.626;8.978;2024-01-16T06:14:34;-5.00;99.90
27026;DHT22;14565;48.626;8.978;2024-01-16T06:17:00;-5.10;99.90
27026;DHT22;14565;48.626;8.978;2024-01-16T06:19:25;-5.10;99.90
27026;DHT22;14565;48.626;8.978;2024-01-16T06:21:51;-5.10;99.90
27026;DHT22;14565;48.626;8.978;2024-01-16T06:24:17;-5.10;99.90
27026;DHT22;14565;48.626;8.978;2024-01-16T06:26:42;-5.10;99.90
27026;DHT22;14565;48.626;8.978;2024-01-16T06:29:08;-5.10;99.90
27026;DHT22;14565;48.626;8.978;2024-01-16T06:31:34;-5.00;99.90
27026;DHT22;14565;48.626;8.978;2024-01-16T06:34:00;-5.00;99.90
27026;DHT22;14565;48.626;8.978;2024-01-16T06:36:25;-5.00;99.90
27026;DHT22;14565;48.626;8.978;2024-01-16T06:38:51;-5.00;99.90
27026;DHT22;14565;48.626;8.978;2024-01-16T06:41:17;-5.00;99.90
27026;DHT22;14565;48.626;8.978;2024-01-16T06:43:42;-4.90;99.90
27026;DHT22;14565;48.626;8.978;2024-01-16T06:46:08;-5.00;99.90
27026;DHT22;14565;48.626;8.978;2024-01-16T06:48:35;-5.00;99.90
27026;DHT22;14565;48.626;8.978;2024-01-16T06:51:02;-5.00;99.90
27026;DHT22;14565;48.626;8.978;2024-01-16T06:53:28;-5.00;99.90
27026;DHT22;14565;48.626;8.978;2024-01-16T06:55:53;-4.90;99.90
27026;DHT22;14565;48.626;8.978;2024-01-16T06:58:19;-5.00;99.90
27026;DHT22;14565;48.626;8.978;2024-01-16T07:00:46;-5.00;99.90
27026;DHT22;14565;48.626;8.978;2024-01-16T07:03:12;-5.00;99.90
27026;DHT22;14565;48.626;8.978;2024-01-16T07:05:38;-5.10;99.90
27026;DHT22;14565;48.626;8.978;2024-01-16T07:08:06;-5.10;99.90
27026;DHT22;14565;48.626;8.978;2024-01-16T07:10:32;-5.10;99.90
27026;DHT22;14565;48.626;8.978;2024-01-16T07:12:57;-5.10;99.90
27026;DHT22;14565;48.626;8.978;2024-01-16T07:15:23;-5.20;99.90
27026;DHT22;14565;48.626;8.978;2024-01-16T07:17:49;-5.20;99.90
27026;DHT22;14565;48.626;8.978;2024-01-16T07:20:14;-5.30;99.90
27026;DHT22;14565;48.626;8.978;2024-01-16T07:22:40;-5.30;99.90
27026;DHT22;14565;48.626;8.978;2024-01-16T07:25:07;-5.20;99.90
27026;DHT22;14565;48.626;8.978;2024-01-16T07:27:33;-5.30;99.90
27026;DHT22;14565;48.626;8.978;2024-01-16T07:29:59;-5.30;99.90
27026;DHT22;14565;48.626;8.978;2024-01-16T07:32:25;-5.20;99.90
27026;DHT22;14565;48.626;8.978;2024-01-16T07:34:50;-5.20;99.90
27026;DHT22;14565;48.626;8.978;2024-01-16T07:37:18;-5.20;99.90
27026;DHT22;14565;48.626;8.978;2024-01-16T07:39:44;-5.20;99.90
27026;DHT22;14565;48.626;8.978;2024-01-16T07:42:09;-5.10;99.90
27026;DHT22;14565;48.626;8.978;2024-01-16T07:44:36;-5.10;99.90
27026;DHT22;14565;48.626;8.978;2024-01-16T07:47:02;-5.10;99.90
27026;DHT22;14565;48.626;8.978;2024-01-16T07:49:27;-5.00;99.90
27026;DHT22;14565;48.626;8.978;2024-01-16T07:51:53;-5.00;99.90
27026;DHT22;14565;48.626;8.978;2024-01-16T07:54:18;-5.00;99.90
27026;DHT22;14565;48.626;8.978;2024-01-16T07:56:44;-5.00;99.90
27026;DHT22;14565;48.626;8.978;2024-01-16T07:59:10;-5.00;99.90
27026;DHT22;14565;48.626;8.978;2024-01-16T08:01:36;-5.00;99.90
27026;DHT22;14565;48.626;8.978;2024-01-16T08:04:03;-4.90;99.90
27026;DHT22;14565;48.626;8.978;2024-01-16T08:06:29;-4.90;99.90
27026;DHT22;14565;48.626;8.978;2024-01-16T08:08:55;-4.90;99.90
27026;DHT22;14565;48.626;8.978;2024-01-16T08:11:20;-4.90;99.90
27026;DHT22;14565;48.626;8.978;2024-01-16T08:13:46;-4.80;99.90
27026;DHT22;14565;48.626;8.978;2024-01-16T08:16:12;-4.70;99.90
27026;DHT22;14565;48.626;8.978;2024-01-16T08:18:37;-4.70;99.90
27026;DHT22;14565;48.626;8.978;2024-01-16T08:21:03;-4.80;99.90
27026;DHT22;14565;48.626;8.978;2024-01-16T08:23:29;-4.70;99.90
27026;DHT22;14565;48.626;8.978;2024-01-16T08:25:55;-4.60;99.90
27026;DHT22;14565;48.626;8.978;2024-01-16T08:28:20;-4.50;99.90
27026;DHT22;14565;48.626;8.978;2024-01-16T08:30:49;-4.40;99.90
27026;DHT22;14565;48.626;8.978;2024-01-16T08:33:15;-4.30;99.90
27026;DHT22;14565;48.626;8.978;2024-01-16T08:35:40;-4.30;99.90
27026;DHT22;14565;48.626;8.978;2024-01-16T08:38:06;-4.40;99.90
27026;DHT22;14565;48.626;8.978;2024-01-16T08:40:32;-4.30;99.90
27026;DHT22;14565;48.626;8.978;2024-01-16T08:42:57;-4.20;99.90
27026;DHT22;14565;48.626;8.978;2024-01-16T08:45:24;-4.10;99.90
27026;DHT22;14565;48.626;8.978;2024-01-16T08:47:51;-4.10;99.90
27026;DHT22;14565;48.626;8.978;2024-01-16T08:50:16;-4.10;99.90
27026;DHT22;14565;48.626;8.978;2024-01-16T08:52:42;-4.00;99.90
27026;DHT22;14565;48.626;8.978;2024-01-16T08:55:08;-4.00;99.90
27026;DHT22;14565;48.626;8.978;2024-01-16T08:57:36;-3.90;99.90
27026;DHT22;14565;48.626;8.978;2024-01-16T09:00:06;-4.00;99.90
27026;DHT22;14565;48.626;8.978;2024-01-16T09:02:32;-3.90;99.90
27026;DHT22;14565;48.626;8.978;2024-01-16T09:04:58;-3.70;99.90
27026;DHT22;14565;48.626;8.978;2024-01-16T09:07:24;-3.50;99.90
27026;DHT22;14565;48.626;8.978;2024-01-16T09:09:50;-3.40;99.90
27026;DHT22;14565;48.626;8.978;2024-01-16T09:12:16;-3.20;99.90
27026;DHT22;14565;48.626;8.978;2024-01-16T09:14:42;-3.20;99.90
27026;DHT22;14565;48.626;8.978;2024-01-16T09:17:07;-3.20;99.90
27026;DHT22;14565;48.626;8.978;2024-01-16T09:19:33;-3.10;99.90
27026;DHT22;14565;48.626;8.978;2024-01-16T09:21:59;-3.10;99.90
27026;DHT22;14565;48.626;8.978;2024-01-16T09:24:24;-2.90;99.90
27026;DHT22;14565;48.626;8.978;2024-01-16T09:26:50;-2.80;99.90
27026;DHT22;14565;48.626;8.978;2024-01-16T09:29:16;-2.80;99.90
27026;DHT22;14565;48.626;8.978;2024-01-16T09:31:42;-2.80;99.90
27026;DHT22;14565;48.626;8.978;2024-01-16T09:34:07;-2.60;99.90
27026;DHT22;14565;48.626;8.978;2024-01-16T09:36:33;-2.60;99.90
27026;DHT22;14565;48.626;8.978;2024-01-16T09:39:02;-2.40;99.90
27026;DHT22;14565;48.626;8.978;2024-01-16T09:41:28;-2.20;99.90
27026;DHT22;14565;48.626;8.978;2024-01-16T09:43:54;-2.30;99.90
27026;DHT22;14565;48.626;8.978;2024-01-16T09:46:22;-1.90;99.90
27026;DHT22;14565;48.626;8.978;2024-01-16T09:48:51;-1.60;99.90
27026;DHT22;14565;48.626;8.978;2024-01-16T09:51:18;-1.70;99.90
27026;DHT22;14565;48.626;8.978;2024-01-16T09:53:44;-1.90;99.90
27026;DHT22;14565;48.626;8.978;2024-01-16T09:56:14;-1.90;99.90
27026;DHT22;14565;48.626;8.978;2024-01-16T09:58:43;-1.80;99.90
27026;DHT22;14565;48.626;8.978;2024-01-16T10:01:11;-1.60;99.90
27026;DHT22;14565;48.626;8.978;2024-01-16T10:03:38;-1.70;99.90
27026;DHT22;14565;48.626;8.978;2024-01-16T10:06:07;-1.40;99.90
27026;DHT22;14565;48.626;8.978;2024-01-16T10:08:33;-1.20;99.90
27026;DHT22;14565;48.626;8.978;2024-01-16T10:10:59;-1.50;99.90
27026;DHT22;14565;48.626;8.978;2024-01-16T10:13:26;-1.50;99.90
27026;DHT22;14565;48.626;8.978;2024-01-16T10:15:52;-1.60;99.90
27026;DHT22;14565;48.626;8.978;2024-01-16T10:18:25;-1.60;99.90
27026;DHT22;14565;48.626;8.978;2024-01-16T10:20:50;-1.50;99.90
27026;DHT22;14565;48.626;8.978;2024-01-16T10:23:28;-1.20;99.90
27026;DHT22;14565;48.626;8.978;2024-01-16T10:26:11;-1.30;99.90
27026;DHT22;14565;48.626;8.978;2024-01-16T10:28:38;-1.10;99.90
27026;DHT22;14565;48.626;8.978;2024-01-16T10:31:09;-0.80;99.90
27026;DHT22;14565;48.626;8.978;2024-01-16T10:33:34;-0.70;99.90
27026;DHT22;14565;48.626;8.978;2024-01-16T10:36:16;-0.60;99.90
27026;DHT22;14565;48.626;8.978;2024-01-16T10:38:43;-0.50;99.90
27026;DHT22;14565;48.626;8.978;2024-01-16T10:41:10;-0.60;99.90
27026;DHT22;14565;48.626;8.978;2024-01-16T10:43:37;-0.40;99.90
27026;DHT22;14565;48.626;8.978;2024-01-16T10:46:16;-0.60;99.90
27026;DHT22;14565;48.626;8.978;2024-01-16T10:48:43;-0.50;99.90
27026;DHT22;14565;48.626;8.978;2024-01-16T10:51:16;-0.40;99.90
27026;DHT22;14565;48.626;8.978;2024-01-16T10:53:44;-0.30;99.90
27026;DHT22;14565;48.626;8.978;2024-01-16T10:56:13;-0.10;99.90
27026;DHT22;14565;48.626;8.978;2024-01-16T10:58:41;-0.30;99.90
27026;DHT22;14565;48.626;8.978;2024-01-16T11:01:10;-0.20;99.90
27026;DHT22;14565;48.626;8.978;2024-01-16T11:03:47;-0.10;99.90
27026;DHT22;14565;48.626;8.978;2024-01-16T11:06:18;-0.10;99.90
27026;DHT22;14565;48.626;8.978;2024-01-16T11:08:48;-0.10;99.90
27026;DHT22;14565;48.626;8.978;2024-01-16T11:11:15;0.00;99.90
27026;DHT22;14565;48.626;8.978;2024-01-16T11:13:41;0.20;99.90
27026;DHT22;14565;48.626;8.978;2024-01-16T11:16:10;0.10;99.90
27026;DHT22;14565;48.626;8.978;2024-01-16T11:18:36;0.30;99.90
27026;DHT22;14565;48.626;8.978;2024-01-16T11:21:10;0.20;99.90
27026;DHT22;14565;48.626;8.978;2024-01-16T11:23:37;0.20;99.90
27026;DHT22;14565;48.626;8.978;2024-01-16T11:26:27;0.20;99.90
27026;DHT22;14565;48.626;8.978;2024-01-16T11:28:56;0.00;99.90
27026;DHT22;14565;48.626;8.978;2024-01-16T11:31:33;-0.10;99.90
27026;DHT22;14565;48.626;8.978;2024-01-16T11:34:00;0.00;99.90
27026;DHT22;14565;48.626;8.978;2024-01-16T11:36:51;0.10;99.90
27026;DHT22;14565;48.626;8.978;2024-01-16T11:39:25;0.00;99.90
27026;DHT22;14565;48.626;8.978;2024-01-16T11:41:52;0.00;99.90
27026;DHT22;14565;48.626;8.978;2024-01-16T11:47:03;0.20;99.90
27026;DHT22;14565;48.626;8.978;2024-01-16T11:49:29;0.10;99.90
27026;DHT22;14565;48.626;8.978;2024-01-16T11:51:57;0.00;99.90
27026;DHT22;14565;48.626;8.978;2024-01-16T11:54:23;0.20;99.90
27026;DHT22;14565;48.626;8.978;2024-01-16T11:57:12;0.10;99.90
27026;DHT22;14565;48.626;8.978;2024-01-16T12:02:51;-0.30;99.90
27026;DHT22;14565;48.626;8.978;2024-01-16T12:05:18;-0.30;99.90
27026;DHT22;14565;48.626;8.978;2024-01-16T12:07:49;-0.10;99.90
27026;DHT22;14565;48.626;8.978;2024-01-16T12:10:23;0.00;99.90
27026;DHT22;14565;48.626;8.978;2024-01-16T12:12:50;-0.10;99.90
27026;DHT22;14565;48.626;8.978;2024-01-16T12:15:20;-0.10;99.90
27026;DHT22;14565;48.626;8.978;2024-01-16T12:17:56;-0.20;99.90
27026;DHT22;14565;48.626;8.978;2024-01-16T12:20:27;-0.50;99.90
27026;DHT22;14565;48.626;8.978;2024-01-16T12:23:07;-0.20;99.90
27026;DHT22;14565;48.626;8.978;2024-01-16T12:25:36;-0.10;99.90
27026;DHT22;14565;48.626;8.978;2024-01-16T12:28:03;0.00;99.90
27026;DHT22;14565;48.626;8.978;2024-01-16T12:30:31;0.00;99.90
27026;DHT22;14565;48.626;8.978;2024-01-16T12:35:39;0.10;99.90
27026;DHT22;14565;48.626;8.978;2024-01-16T12:38:07;0.10;99.90
27026;DHT22;14565;48.626;8.978;2024-01-16T12:40:49;0.20;99.90
27026;DHT22;14565;48.626;8.978;2024-01-16T12:43:17;0.10;99.90
27026;DHT22;14565;48.626;8.978;2024-01-16T12:45:44;0.10;99.90
27026;DHT22;14565;48.626;8.978;2024-01-16T12:48:10;0.10;99.90
27026;DHT22;14565;48.626;8.978;2024-01-16T12:50:36;0.10;99.90
27026;DHT22;14565;48.626;8.978;2024-01-16T12:53:03;0.10;99.90
27026;DHT22;14565;48.626;8.978;2024-01-16T12:55:33;0.10;99.90
27026;DHT22;14565;48.626;8.978;2024-01-16T12:58:20;0.10;99.90
27026;DHT22;14565;48.626;8.978;2024-01-16T13:00:50;0.20;99.90
27026;DHT22;14565;48.626;8.978;2024-01-16T13:03:24;0.20;99.90
27026;DHT22;14565;48.626;8.978;2024-01-16T13:05:56;0.20;99.90
27026;DHT22;14565;48.626;8.978;2024-01-16T13:08:22;0.30;99.90
27026;DHT22;14565;48.626;8.978;2024-01-16T13:11:07;0.20;99.90
27026;DHT22;14565;48.626;8.978;2024-01-16T13:13:33;0.10;99.90
27026;DHT22;14565;48.626;8.978;2024-01-16T13:16:01;0.10;99.90
27026;DHT22;14565;48.626;8.978;2024-01-16T13:18:28;0.10;99.90
27026;DHT22;14565;48.626;8.978;2024-01-16T13:20:58;0.20;99.90
27026;DHT22;14565;48.626;8.978;2024-01-16T13:23:25;0.30;99.90
27026;DHT22;14565;48.626;8.978;2024-01-16T13:25:51;0.20;99.90
27026;DHT22;14565;48.626;8.978;2024-01-16T13:28:19;0.30;99.90
27026;DHT22;14565;48.626;8.978;2024-01-16T13:30:47;0.20;99.90
27026;DHT22;14565;48.626;8.978;2024-01-16T13:33:13;0.20;99.90
27026;DHT22;14565;48.626;8.978;2024-01-16T13:35:41;0.10;99.90
27026;DHT22;14565;48.626;8.978;2024-01-16T13:38:08;0.20;99.90
27026;DHT22;14565;48.626;8.978;2024-01-16T13:40:35;0.10;99.90
27026;DHT22;14565;48.626;8.978;2024-01-16T13:43:01;0.10;99.90
27026;DHT22;14565;48.626;8.978;2024-01-16T13:45:27;0.20;99.90
27026;DHT22;14565;48.626;8.978;2024-01-16T13:47:56;0.40;99.90
27026;DHT22;14565;48.626;8.978;2024-01-16T13:50:23;0.50;99.90
27026;DHT22;14565;48.626;8.978;2024-01-16T13:52:49;0.50;99.90
27026;DHT22;14565;48.626;8.978;2024-01-16T13:55:15;0.50;99.90
27026;DHT22;14565;48.626;8.978;2024-01-16T13:57:41;0.50;99.90
27026;DHT22;14565;48.626;8.978;2024-01-16T14:00:09;0.30;99.90
27026;DHT22;14565;48.626;8.978;2024-01-16T14:02:41;0.20;99.90
27026;DHT22;14565;48.626;8.978;2024-01-16T14:05:08;0.30;99.90
27026;DHT22;14565;48.626;8.978;2024-01-16T14:07:40;0.20;99.90
27026;DHT22;14565;48.626;8.978;2024-01-16T14:10:08;0.20;99.90
27026;DHT22;14565;48.626;8.978;2024-01-16T14:12:35;0.30;99.90
27026;DHT22;14565;48.626;8.978;2024-01-16T14:15:01;0.30;99.90
27026;DHT22;14565;48.626;8.978;2024-01-16T14:17:30;0.40;99.90
27026;DHT22;14565;48.626;8.978;2024-01-16T14:19:56;0.20;99.90
27026;DHT22;14565;48.626;8.978;2024-01-16T14:22:21;0.10;99.90
27026;DHT22;14565;48.626;8.978;2024-01-16T14:24:47;0.20;99.90
27026;DHT22;14565;48.626;8.978;2024-01-16T14:27:16;0.20;99.90
27026;DHT22;14565;48.626;8.978;2024-01-16T14:29:42;0.20;99.90
27026;DHT22;14565;48.626;8.978;2024-01-16T14:32:08;0.20;99.90
27026;DHT22;14565;48.626;8.978;2024-01-16T14:34:33;0.00;99.90
27026;DHT22;14565;48.626;8.978;2024-01-16T14:36:59;0.00;99.90
27026;DHT22;14565;48.626;8.978;2024-01-16T14:39:25;0.00;99.90
27026;DHT22;14565;48.626;8.978;2024-01-16T14:41:50;-0.10;99.90
27026;DHT22;14565;48.626;8.978;2024-01-16T14:44:19;-0.10;99.90
27026;DHT22;14565;48.626;8.978;2024-01-16T14:46:44;-0.20;99.90
27026;DHT22;14565;48.626;8.978;2024-01-16T14:49:10;-0.20;99.90
27026;DHT22;14565;48.626;8.978;2024-01-16T14:51:36;-0.30;99.90
27026;DHT22;14565;48.626;8.978;2024-01-16T14:54:03;-0.30;99.90
27026;DHT22;14565;48.626;8.978;2024-01-16T14:56:30;-0.40;99.90
27026;DHT22;14565;48.626;8.978;2024-01-16T14:58:56;-0.40;99.90
27026;DHT22;14565;48.626;8.978;2024-01-16T15:01:22;-0.30;99.90
27026;DHT22;14565;48.626;8.978;2024-01-16T15:03:48;-0.50;99.90
27026;DHT22;14565;48.626;8.978;2024-01-16T15:06:14;-0.50;99.90
27026;DHT22;14565;48.626;8.978;2024-01-16T15:08:40;-0.60;99.90
27026;DHT22;14565;48.626;8.978;2024-01-16T15:11:06;-0.70;99.90
27026;DHT22;14565;48.626;8.978;2024-01-16T15:13:32;-0.70;99.90
27026;DHT22;14565;48.626;8.978;2024-01-16T15:15:59;-0.80;99.90
27026;DHT22;14565;48.626;8.978;2024-01-16T15:18:24;-0.80;99.90
27026;DHT22;14565;48.626;8.978;2024-01-16T15:20:50;-0.90;99.90
27026;DHT22;14565;48.626;8.978;2024-01-16T15:23:16;-1.00;99.90
27026;DHT22;14565;48.626;8.978;2024-01-16T15:25:42;-1.10;99.90
27026;DHT22;14565;48.626;8.978;2024-01-16T15:28:15;-1.10;99.90
27026;DHT22;14565;48.626;8.978;2024-01-16T15:30:43;-1.30;99.90
27026;DHT22;14565;48.626;8.978;2024-01-16T15:33:11;-1.30;99.90
27026;DHT22;14565;48.626;8.978;2024-01-16T15:35:36;-1.60;99.90
27026;DHT22;14565;48.626;8.978;2024-01-16T15:38:02;-1.70;99.90
27026;DHT22;14565;48.626;8.978;2024-01-16T15:40:29;-1.80;99.90